sensor_id;sensor_type;location;lat;lon;timestamp;pressure;altitude;pressure_sealevel;temperature;humidity
17781;BME280;8498;52.516;13.790;2023-04-27T00:03:58;101288.34;;;7.18;73.84
17781;BME280;8498;52.516;13.790;2023-04-27T00:09:20;101288.88;;;7.26;73.66
17781;BME280;8498;52.516;13.790;2023-04-27T00:14:43;101278.94;;;7.31;74.25
17781;BME280;8498;52.516;13.790;2023-04-27T00:20:06;101274.53;;;7.51;73.03
17781;BME280;8498;52.516;13.790;2023-04-27T00:25:30;101274.97;;;7.60;71.72
17781;BME280;8498;52.516;13.790;2023-04-27T00:30:52;101272.81;;;7.68;71.16
17781;BME280;8498;52.516;13.790;2023-04-27T00:36:17;101271.38;;;7.80;70.35
17781;BME280;8498;52.516;13.790;2023-04-27T00:41:42;101275.75;;;7.81;69.76
17781;BME280;8498;52.516;13.790;2023-04-27T00:47:06;101273.75;;;7.86;69.93
17781;BME280;8498;52.516;13.790;2023-04-27T00:52:29;101284.47;;;7.83;69.68
17781;BME280;8498;52.516;13.790;2023-04-27T00:57:52;101284.03;;;7.92;69.51
17781;BME280;8498;52.516;13.790;2023-04-27T01:03:15;101286.91;;;7.88;69.62
17781;BME280;8498;52.516;13.790;2023-04-27T01:08:38;101291.03;;;7.93;69.50
17781;BME280;8498;52.516;13.790;2023-04-27T01:14:05;101293.81;;;7.90;69.07
17781;BME280;8498;52.516;13.790;2023-04-27T01:19:28;101290.41;;;7.88;68.95
17781;BME280;8498;52.516;13.790;2023-04-27T01:24:50;101284.97;;;7.91;68.86
17781;BME280;8498;52.516;13.790;2023-04-27T01:30:13;101302.41;;;7.95;68.55
17781;BME280;8498;52.516;13.790;2023-04-27T01:35:35;101291.53;;;8.01;68.58
17781;BME280;8498;52.516;13.790;2023-04-27T01:40:58;101303.84;;;8.02;68.16
17781;BME280;8498;52.516;13.790;2023-04-27T01:46:24;101305.84;;;7.97;68.41
17781;BME280;8498;52.516;13.790;2023-04-27T01:51:46;101307.66;;;7.97;68.65
17781;BME280;8498;52.516;13.790;2023-04-27T01:57:10;101314.72;;;7.96;68.56
17781;BME280;8498;52.516;13.790;2023-04-27T02:02:33;101317.28;;;7.79;68.73
17781;BME280;8498;52.516;13.790;2023-04-27T02:07:55;101317.50;;;7.74;68.86
17781;BME280;8498;52.516;13.790;2023-04-27T02:13:18;101324.09;;;7.85;68.51
17781;BME280;8498;52.516;13.790;2023-04-27T02:18:40;101335.47;;;7.87;68.94
17781;BME280;8498;52.516;13.790;2023-04-27T02:24:04;101344.31;;;7.86;68.74
17781;BME280;8498;52.516;13.790;2023-04-27T02:29:30;101337.31;;;7.85;69.36
17781;BME280;8498;52.516;13.790;2023-04-27T02:34:53;101345.00;;;7.89;69.10
17781;BME280;8498;52.516;13.790;2023-04-27T02:40:17;101340.59;;;7.90;68.58
17781;BME280;8498;52.516;13.790;2023-04-27T02:45:40;101341.59;;;7.87;68.96
17781;BME280;8498;52.516;13.790;2023-04-27T02:51:03;101355.03;;;7.83;68.57
17781;BME280;8498;52.516;13.790;2023-04-27T02:56:25;101347.47;;;7.75;68.89
17781;BME280;8498;52.516;13.790;2023-04-27T03:01:48;101353.00;;;7.69;68.91
17781;BME280;8498;52.516;13.790;2023-04-27T03:07:10;101352.84;;;7.53;69.53
17781;BME280;8498;52.516;13.790;2023-04-27T03:12:34;101361.53;;;7.57;69.79
17781;BME280;8498;52.516;13.790;2023-04-27T03:17:56;101356.81;;;7.63;69.41
17781;BME280;8498;52.516;13.790;2023-04-27T03:23:18;101356.00;;;7.61;69.32
17781;BME280;8498;52.516;13.790;2023-04-27T03:28:40;101358.72;;;7.60;69.08
17781;BME280;8498;52.516;13.790;2023-04-27T03:34:03;101358.59;;;7.63;68.81
17781;BME280;8498;52.516;13.790;2023-04-27T03:39:26;101377.91;;;7.65;68.64
17781;BME280;8498;52.516;13.790;2023-04-27T03:44:48;101374.03;;;7.72;68.50
17781;BME280;8498;52.516;13.790;2023-04-27T03:50:11;101375.88;;;7.70;68.80
17781;BME280;8498;52.516;13.790;2023-04-27T03:55:36;101382.03;;;7.70;68.76
17781;BME280;8498;52.516;13.790;2023-04-27T04:00:59;101386.63;;;7.67;68.89
17781;BME280;8498;52.516;13.790;2023-04-27T04:06:22;101395.31;;;7.69;69.18
17781;BME280;8498;52.516;13.790;2023-04-27T04:11:46;101398.69;;;7.72;69.04
17781;BME280;8498;52.516;13.790;2023-04-27T04:17:09;101410.81;;;7.78;69.03
17781;BME280;8498;52.516;13.790;2023-04-27T04:22:35;101419.50;;;7.80;69.38
17781;BME280;8498;52.516;13.790;2023-04-27T04:27:58;101416.78;;;7.82;69.14
17781;BME280;8498;52.516;13.790;2023-04-27T04:33:20;101426.13;;;7.70;68.94
17781;BME280;8498;52.516;13.790;2023-04-27T04:38:43;101424.34;;;7.70;68.94
17781;BME280;8498;52.516;13.790;2023-04-27T04:44:05;101429.97;;;7.63;68.63
17781;BME280;8498;52.516;13.790;2023-04-27T04:49:28;101430.25;;;7.77;68.32
17781;BME280;8498;52.516;13.790;2023-04-27T04:54:51;101439.50;;;7.87;68.06
17781;BME280;8498;52.516;13.790;2023-04-27T05:00:15;101439.88;;;7.98;67.87
17781;BME280;8498;52.516;13.790;2023-04-27T05:05:37;101449.88;;;8.10;67.83
17781;BME280;8498;52.516;13.790;2023-04-27T05:11:00;101456.31;;;8.05;67.06
17781;BME280;8498;52.516;13.790;2023-04-27T05:16:22;101446.28;;;8.11;67.50
17781;BME280;8498;52.516;13.790;2023-04-27T05:21:45;101442.28;;;8.22;66.99
17781;BME280;8498;52.516;13.790;2023-04-27T05:27:07;101448.88;;;8.13;66.50
17781;BME280;8498;52.516;13.790;2023-04-27T05:32:30;101452.63;;;8.28;66.09
17781;BME280;8498;52.516;13.790;2023-04-27T05:37:55;101449.88;;;8.10;65.84
17781;BME280;8498;52.516;13.790;2023-04-27T05:43:17;101452.28;;;8.35;65.44
17781;BME280;8498;52.516;13.790;2023-04-27T05:48:40;101456.44;;;8.41;65.51
17781;BME280;8498;52.516;13.790;2023-04-27T05:54:02;101449.19;;;8.63;65.00
17781;BME280;8498;52.516;13.790;2023-04-27T05:59:25;101450.78;;;8.67;64.97
17781;BME280;8498;52.516;13.790;2023-04-27T06:04:48;101457.47;;;8.74;63.55
17781;BME280;8498;52.516;13.790;2023-04-27T06:10:10;101455.78;;;8.55;64.39
17781;BME280;8498;52.516;13.790;2023-04-27T06:15:32;101463.38;;;8.81;63.69
17781;BME280;8498;52.516;13.790;2023-04-27T06:20:59;101464.13;;;8.83;63.39
17781;BME280;8498;52.516;13.790;2023-04-27T06:26:23;101475.63;;;9.01;63.58
17781;BME280;8498;52.516;13.790;2023-04-27T06:31:45;101477.88;;;8.91;63.04
17781;BME280;8498;52.516;13.790;2023-04-27T06:37:08;101477.81;;;8.74;63.30
17781;BME280;8498;52.516;13.790;2023-04-27T06:42:31;101480.94;;;9.01;62.73
17781;BME280;8498;52.516;13.790;2023-04-27T06:47:53;101478.44;;;9.15;61.48
17781;BME280;8498;52.516;13.790;2023-04-27T06:53:15;101486.13;;;9.38;60.78
17781;BME280;8498;52.516;13.790;2023-04-27T06:58:38;101484.81;;;9.64;59.09
17781;BME280;8498;52.516;13.790;2023-04-27T07:04:02;101483.72;;;9.85;58.47
17781;BME280;8498;52.516;13.790;2023-04-27T07:09:24;101494.06;;;9.55;56.04
17781;BME280;8498;52.516;13.790;2023-04-27T07:14:48;101489.09;;;9.49;55.90
17781;BME280;8498;52.516;13.790;2023-04-27T07:20:12;101493.31;;;9.53;55.88
17781;BME280;8498;52.516;13.790;2023-04-27T07:25:35;101494.56;;;9.64;55.07
17781;BME280;8498;52.516;13.790;2023-04-27T07:30:58;101498.69;;;9.52;53.93
17781;BME280;8498;52.516;13.790;2023-04-27T07:36:20;101491.25;;;9.93;53.27
17781;BME280;8498;52.516;13.790;2023-04-27T07:41:43;101494.38;;;10.01;53.00
17781;BME280;8498;52.516;13.790;2023-04-27T07:47:05;101500.59;;;10.00;52.69
17781;BME280;8498;52.516;13.790;2023-04-27T07:52:28;101498.41;;;10.08;52.84
17781;BME280;8498;52.516;13.790;2023-04-27T07:57:52;101498.63;;;10.21;52.45
17781;BME280;8498;52.516;13.790;2023-04-27T08:03:15;101501.69;;;10.62;52.00
17781;BME280;8498;52.516;13.790;2023-04-27T08:08:38;101505.75;;;10.69;51.30
17781;BME280;8498;52.516;13.790;2023-04-27T08:14:00;101500.91;;;10.60;51.66
17781;BME280;8498;52.516;13.790;2023-04-27T08:19:22;101489.09;;;10.81;50.67
17781;BME280;8498;52.516;13.790;2023-04-27T08:24:45;101506.75;;;11.14;50.10
17781;BME280;8498;52.516;13.790;2023-04-27T08:30:07;101502.44;;;11.11;49.21
17781;BME280;8498;52.516;13.790;2023-04-27T08:35:30;101509.16;;;10.71;49.52
17781;BME280;8498;52.516;13.790;2023-04-27T08:40:52;101499.19;;;10.59;51.13
17781;BME280;8498;52.516;13.790;2023-04-27T08:46:22;101511.41;;;10.79;50.27
17781;BME280;8498;52.516;13.790;2023-04-27T08:51:46;101501.78;;;10.60;49.59
17781;BME280;8498;52.516;13.790;2023-04-27T08:57:09;101505.06;;;10.81;49.44
17781;BME280;8498;52.516;13.790;2023-04-27T09:02:32;101505.63;;;11.18;49.21
17781;BME280;8498;52.516;13.790;2023-04-27T09:08:00;101499.66;;;10.98;45.84
17781;BME280;8498;52.516;13.790;2023-04-27T09:13:34;101498.75;;;11.29;46.01
17781;BME280;8498;52.516;13.790;2023-04-27T09:18:57;101502.06;;;11.33;45.45
17781;BME280;8498;52.516;13.790;2023-04-27T09:24:19;101509.59;;;11.11;45.42
17781;BME280;8498;52.516;13.790;2023-04-27T09:29:42;101504.53;;;11.06;46.34
17781;BME280;8498;52.516;13.790;2023-04-27T09:35:15;101510.16;;;11.31;46.00
17781;BME280;8498;52.516;13.790;2023-04-27T09:40:41;101494.28;;;11.60;46.87
17781;BME280;8498;52.516;13.790;2023-04-27T09:46:04;101492.97;;;11.97;46.15
17781;BME280;8498;52.516;13.790;2023-04-27T09:51:29;101489.53;;;11.81;47.15
17781;BME280;8498;52.516;13.790;2023-04-27T10:03:35;101486.97;;;11.93;44.64
17781;BME280;8498;52.516;13.790;2023-04-27T10:08:34;101485.19;;;12.22;43.51
17781;BME280;8498;52.516;13.790;2023-04-27T10:13:56;101475.66;;;12.18;44.08
17781;BME280;8498;52.516;13.790;2023-04-27T10:19:20;101473.13;;;11.72;43.99
17781;BME280;8498;52.516;13.790;2023-04-27T10:24:48;101473.63;;;11.79;43.28
17781;BME280;8498;52.516;13.790;2023-04-27T10:30:12;101476.31;;;11.63;42.47
17781;BME280;8498;52.516;13.790;2023-04-27T10:35:37;101478.13;;;11.63;43.00
17781;BME280;8498;52.516;13.790;2023-04-27T10:41:02;101477.13;;;13.06;41.25
17781;BME280;8498;52.516;13.790;2023-04-27T10:46:26;101471.56;;;12.82;39.95
17781;BME280;8498;52.516;13.790;2023-04-27T10:51:50;101469.84;;;12.40;41.76
17781;BME280;8498;52.516;13.790;2023-04-27T10:57:12;101460.38;;;12.77;42.39
17781;BME280;8498;52.516;13.790;2023-04-27T11:02:35;101465.25;;;13.76;42.97
17781;BME280;8498;52.516;13.790;2023-04-27T11:08:08;101469.50;;;14.29;40.08
17781;BME280;8498;52.516;13.790;2023-04-27T11:13:31;101476.03;;;14.87;37.83
17781;BME280;8498;52.516;13.790;2023-04-27T11:18:55;101467.94;;;13.89;38.54
17781;BME280;8498;52.516;13.790;2023-04-27T11:24:20;101464.13;;;13.41;39.76
17781;BME280;8498;52.516;13.790;2023-04-27T11:29:42;101471.13;;;13.16;39.98
17781;BME280;8498;52.516;13.790;2023-04-27T11:35:04;101470.88;;;12.66;40.12
17781;BME280;8498;52.516;13.790;2023-04-27T11:40:27;101472.88;;;12.48;39.87
17781;BME280;8498;52.516;13.790;2023-04-27T11:45:50;101480.16;;;12.87;40.26
17781;BME280;8498;52.516;13.790;2023-04-27T11:51:12;101487.03;;;13.04;39.52
17781;BME280;8498;52.516;13.790;2023-04-27T11:56:40;101481.97;;;12.72;40.00
17781;BME280;8498;52.516;13.790;2023-04-27T12:02:03;101492.09;;;12.53;40.13
17781;BME280;8498;52.516;13.790;2023-04-27T12:07:25;101493.72;;;12.56;40.15
17781;BME280;8498;52.516;13.790;2023-04-27T12:12:48;101497.34;;;12.55;40.51
17781;BME280;8498;52.516;13.790;2023-04-27T12:18:11;101502.00;;;12.51;40.73
17781;BME280;8498;52.516;13.790;2023-04-27T12:23:33;101506.00;;;12.44;41.46
17781;BME280;8498;52.516;13.790;2023-04-27T12:28:56;101504.84;;;12.62;41.47
17781;BME280;8498;52.516;13.790;2023-04-27T12:34:18;101509.19;;;12.77;40.55
17781;BME280;8498;52.516;13.790;2023-04-27T12:39:41;101501.47;;;12.87;39.94
17781;BME280;8498;52.516;13.790;2023-04-27T12:45:04;101502.06;;;13.19;40.69
17781;BME280;8498;52.516;13.790;2023-04-27T12:50:26;101503.56;;;12.96;38.06
17781;BME280;8498;52.516;13.790;2023-04-27T12:55:48;101501.13;;;13.72;37.24
17781;BME280;8498;52.516;13.790;2023-04-27T13:01:11;101498.19;;;13.50;37.92
17781;BME280;8498;52.516;13.790;2023-04-27T13:06:36;101495.22;;;13.54;35.58
17781;BME280;8498;52.516;13.790;2023-04-27T13:11:59;101509.53;;;13.53;36.91
17781;BME280;8498;52.516;13.790;2023-04-27T13:17:23;101500.75;;;13.51;39.67
17781;BME280;8498;52.516;13.790;2023-04-27T13:22:45;101497.53;;;13.34;39.63
17781;BME280;8498;52.516;13.790;2023-04-27T13:28:08;101497.72;;;13.31;39.62
17781;BME280;8498;52.516;13.790;2023-04-27T13:33:31;101503.28;;;13.80;38.67
17781;BME280;8498;52.516;13.790;2023-04-27T13:38:54;101495.28;;;14.18;37.54
17781;BME280;8498;52.516;13.790;2023-04-27T13:44:16;101499.66;;;14.44;35.22
17781;BME280;8498;52.516;13.790;2023-04-27T13:49:40;101494.28;;;14.69;35.65
17781;BME280;8498;52.516;13.790;2023-04-27T13:55:03;101501.53;;;14.80;35.72
17781;BME280;8498;52.516;13.790;2023-04-27T14:00:26;101491.97;;;14.52;35.03
17781;BME280;8498;52.516;13.790;2023-04-27T14:05:52;101494.31;;;14.19;34.83
17781;BME280;8498;52.516;13.790;2023-04-27T14:11:15;101487.66;;;14.99;34.53
17781;BME280;8498;52.516;13.790;2023-04-27T14:16:38;101489.75;;;14.83;34.86
17781;BME280;8498;52.516;13.790;2023-04-27T14:22:00;101488.00;;;14.94;35.16
17781;BME280;8498;52.516;13.790;2023-04-27T14:27:23;101501.16;;;14.23;35.03
17781;BME280;8498;52.516;13.790;2023-04-27T14:32:47;101503.78;;;13.72;36.18
17781;BME280;8498;52.516;13.790;2023-04-27T14:38:09;101503.44;;;14.42;34.95
17781;BME280;8498;52.516;13.790;2023-04-27T14:43:32;101491.81;;;15.03;34.11
17781;BME280;8498;52.516;13.790;2023-04-27T14:48:55;101496.56;;;14.25;36.10
17781;BME280;8498;52.516;13.790;2023-04-27T14:54:17;101496.25;;;14.17;36.08
17781;BME280;8498;52.516;13.790;2023-04-27T14:59:40;101493.44;;;14.56;36.44
17781;BME280;8498;52.516;13.790;2023-04-27T15:05:04;101492.34;;;15.56;34.29
17781;BME280;8498;52.516;13.790;2023-04-27T15:10:27;101481.44;;;15.92;33.12
17781;BME280;8498;52.516;13.790;2023-04-27T15:15:56;101490.94;;;15.85;33.23
17781;BME280;8498;52.516;13.790;2023-04-27T15:21:20;101489.28;;;16.29;32.48
17781;BME280;8498;52.516;13.790;2023-04-27T15:26:45;101485.00;;;16.15;32.23
17781;BME280;8498;52.516;13.790;2023-04-27T15:32:08;101482.78;;;15.87;33.02
17781;BME280;8498;52.516;13.790;2023-04-27T15:37:33;101480.84;;;16.00;32.81
17781;BME280;8498;52.516;13.790;2023-04-27T15:42:56;101478.69;;;15.59;32.11
17781;BME280;8498;52.516;13.790;2023-04-27T15:48:18;101469.72;;;15.12;33.30
17781;BME280;8498;52.516;13.790;2023-04-27T15:53:41;101469.81;;;14.25;34.46
17781;BME280;8498;52.516;13.790;2023-04-27T15:59:03;101472.94;;;13.93;35.48
17781;BME280;8498;52.516;13.790;2023-04-27T16:04:26;101463.41;;;13.64;35.68
17781;BME280;8498;52.516;13.790;2023-04-27T16:09:48;101466.91;;;13.52;36.40
17781;BME280;8498;52.516;13.790;2023-04-27T16:15:11;101449.31;;;13.62;37.60
17781;BME280;8498;52.516;13.790;2023-04-27T16:20:33;101456.25;;;13.65;37.21
17781;BME280;8498;52.516;13.790;2023-04-27T16:25:58;101448.91;;;13.68;37.58
17781;BME280;8498;52.516;13.790;2023-04-27T16:31:20;101447.59;;;13.48;38.83
17781;BME280;8498;52.516;13.790;2023-04-27T16:36:42;101444.44;;;13.29;38.36
17781;BME280;8498;52.516;13.790;2023-04-27T16:42:05;101448.06;;;13.15;39.58
17781;BME280;8498;52.516;13.790;2023-04-27T16:47:27;101449.38;;;13.08;39.43
17781;BME280;8498;52.516;13.790;2023-04-27T16:52:50;101452.88;;;12.96;40.35
17781;BME280;8498;52.516;13.790;2023-04-27T16:58:12;101455.56;;;12.82;39.48
17781;BME280;8498;52.516;13.790;2023-04-27T17:03:34;101456.78;;;12.64;40.37
17781;BME280;8498;52.516;13.790;2023-04-27T17:08:57;101455.06;;;12.48;41.28
17781;BME280;8498;52.516;13.790;2023-04-27T17:14:20;101455.13;;;12.34;41.28
17781;BME280;8498;52.516;13.790;2023-04-27T17:19:45;101459.69;;;12.18;43.90
17781;BME280;8498;52.516;13.790;2023-04-27T17:25:08;101455.09;;;12.06;43.30
17781;BME280;8498;52.516;13.790;2023-04-27T17:30:30;101457.38;;;11.98;45.09
17781;BME280;8498;52.516;13.790;2023-04-27T17:35:53;101465.94;;;11.89;45.19
17781;BME280;8498;52.516;13.790;2023-04-27T17:41:15;101453.97;;;11.82;44.95
17781;BME280;8498;52.516;13.790;2023-04-27T17:46:37;101449.81;;;11.62;46.24
17781;BME280;8498;52.516;13.790;2023-04-27T17:52:00;101458.31;;;11.38;46.91
17781;BME280;8498;52.516;13.790;2023-04-27T17:57:23;101462.31;;;11.16;48.33
17781;BME280;8498;52.516;13.790;2023-04-27T18:02:45;101458.59;;;10.88;50.04
17781;BME280;8498;52.516;13.790;2023-04-27T18:08:10;101468.88;;;10.63;51.63
17781;BME280;8498;52.516;13.790;2023-04-27T18:13:33;101473.00;;;10.37;52.11
17781;BME280;8498;52.516;13.790;2023-04-27T18:18:55;101475.28;;;10.10;52.13
17781;BME280;8498;52.516;13.790;2023-04-27T18:24:18;101482.06;;;9.83;53.47
17781;BME280;8498;52.516;13.790;2023-04-27T18:29:40;101485.19;;;9.56;54.81
17781;BME280;8498;52.516;13.790;2023-04-27T18:35:03;101495.94;;;9.36;54.73
17781;BME280;8498;52.516;13.790;2023-04-27T18:40:26;101500.53;;;9.15;55.57
17781;BME280;8498;52.516;13.790;2023-04-27T18:45:49;101511.03;;;9.00;55.96
17781;BME280;8498;52.516;13.790;2023-04-27T18:51:12;101517.22;;;8.81;56.28
17781;BME280;8498;52.516;13.790;2023-04-27T18:56:35;101516.34;;;8.62;57.44
17781;BME280;8498;52.516;13.790;2023-04-27T19:01:57;101513.91;;;8.39;58.23
17781;BME280;8498;52.516;13.790;2023-04-27T19:07:20;101526.75;;;8.28;57.14
17781;BME280;8498;52.516;13.790;2023-04-27T19:12:43;101528.22;;;8.15;57.81
17781;BME280;8498;52.516;13.790;2023-04-27T19:18:07;101525.53;;;7.96;60.04
17781;BME280;8498;52.516;13.790;2023-04-27T19:23:32;101525.31;;;7.80;62.52
17781;BME280;8498;52.516;13.790;2023-04-27T19:28:55;101533.91;;;7.65;63.27
17781;BME280;8498;52.516;13.790;2023-04-27T19:34:18;101528.72;;;7.42;64.14
17781;BME280;8498;52.516;13.790;2023-04-27T19:39:40;101525.50;;;7.35;63.80
17781;BME280;8498;52.516;13.790;2023-04-27T19:45:03;101532.03;;;7.26;63.54
17781;BME280;8498;52.516;13.790;2023-04-27T19:50:29;101527.16;;;7.16;64.80
17781;BME280;8498;52.516;13.790;2023-04-27T19:55:51;101535.63;;;7.02;65.69
17781;BME280;8498;52.516;13.790;2023-04-27T20:01:14;101529.06;;;6.90;66.27
17781;BME280;8498;52.516;13.790;2023-04-27T20:06:36;101529.72;;;6.74;66.70
17781;BME280;8498;52.516;13.790;2023-04-27T20:11:58;101527.53;;;6.61;65.92
17781;BME280;8498;52.516;13.790;2023-04-27T20:17:20;101518.06;;;6.56;66.11
17781;BME280;8498;52.516;13.790;2023-04-27T20:22:45;101515.06;;;6.43;66.59
17781;BME280;8498;52.516;13.790;2023-04-27T20:28:08;101513.53;;;6.36;67.43
17781;BME280;8498;52.516;13.790;2023-04-27T20:33:31;101514.00;;;6.24;67.68
17781;BME280;8498;52.516;13.790;2023-04-27T20:38:53;101519.78;;;6.10;69.37
17781;BME280;8498;52.516;13.790;2023-04-27T20:44:16;101524.53;;;6.01;70.77
17781;BME280;8498;52.516;13.790;2023-04-27T20:49:39;101517.59;;;5.98;70.37
17781;BME280;8498;52.516;13.790;2023-04-27T20:55:03;101519.50;;;5.93;70.45
17781;BME280;8498;52.516;13.790;2023-04-27T21:00:25;101516.38;;;5.82;70.80
17781;BME280;8498;52.516;13.790;2023-04-27T21:05:47;101512.22;;;5.75;71.36
17781;BME280;8498;52.516;13.790;2023-04-27T21:11:10;101511.41;;;5.73;70.57
17781;BME280;8498;52.516;13.790;2023-04-27T21:16:33;101506.31;;;5.68;70.64
17781;BME280;8498;52.516;13.790;2023-04-27T21:21:55;101506.38;;;5.67;70.61
17781;BME280;8498;52.516;13.790;2023-04-27T21:27:18;101505.81;;;5.57;71.20
17781;BME280;8498;52.516;13.790;2023-04-27T21:32:41;101507.88;;;5.49;71.63
17781;BME280;8498;52.516;13.790;2023-04-27T21:38:03;101498.44;;;5.42;72.43
17781;BME280;8498;52.516;13.790;2023-04-27T21:43:25;101499.56;;;5.35;72.52
17781;BME280;8498;52.516;13.790;2023-04-27T21:48:48;101501.38;;;5.33;73.04
17781;BME280;8498;52.516;13.790;2023-04-27T21:54:11;101503.13;;;5.32;73.30
17781;BME280;8498;52.516;13.790;2023-04-27T21:59:33;101498.53;;;5.12;73.84
17781;BME280;8498;52.516;13.790;2023-04-27T22:04:57;101504.88;;;5.07;74.02
17781;BME280;8498;52.516;13.790;2023-04-27T22:10:19;101501.03;;;4.89;74.57
17781;BME280;8498;52.516;13.790;2023-04-27T22:15:42;101504.81;;;4.80;75.61
17781;BME280;8498;52.516;13.790;2023-04-27T22:21:04;101499.50;;;4.82;75.21
17781;BME280;8498;52.516;13.790;2023-04-27T22:26:27;101509.25;;;4.78;75.15
17781;BME280;8498;52.516;13.790;2023-04-27T22:31:49;101513.81;;;4.73;75.27
17781;BME280;8498;52.516;13.790;2023-04-27T22:37:11;101515.59;;;4.73;75.43
17781;BME280;8498;52.516;13.790;2023-04-27T22:42:34;101512.44;;;4.62;75.64
17781;BME280;8498;52.516;13.790;2023-04-27T22:47:56;101516.13;;;4.56;75.99
17781;BME280;8498;52.516;13.790;2023-04-27T22:53:19;101513.34;;;4.61;75.63
17781;BME280;8498;52.516;13.790;2023-04-27T22:58:42;101514.25;;;4.60;76.13
17781;BME280;8498;52.516;13.790;2023-04-27T23:04:04;101508.34;;;4.52;75.71
17781;BME280;8498;52.516;13.790;2023-04-27T23:09:27;101505.22;;;4.39;76.12
17781;BME280;8498;52.516;13.790;2023-04-27T23:14:49;101509.97;;;4.26;77.56
17781;BME280;8498;52.516;13.790;2023-04-27T23:20:13;101501.34;;;4.21;77.66
17781;BME280;8498;52.516;13.790;2023-04-27T23:25:50;101492.78;;;4.15;78.24
17781;BME280;8498;52.516;13.790;2023-04-27T23:31:12;101494.69;;;4.10;78.40
17781;BME280;8498;52.516;13.790;2023-04-27T23:36:34;101494.75;;;4.06;78.60
17781;BME280;8498;52.516;13.790;2023-04-27T23:41:57;101482.44;;;4.09;78.41
17781;BME280;8498;52.516;13.790;2023-04-27T23:47:19;101479.88;;;4.05;77.95
17781;BME280;8498;52.516;13.790;2023-04-27T23:52:41;101472.78;;;4.09;77.83
17781;BME280;8498;52.516;13.790;2023-04-27T23:58:04;101465.22;;;3.97;77.99
